Time;durP1;ratioP1;P1;durP2;ratioP2;P2;SDS_P1;SDS_P2;PMS_P1;PMS_P2;Temp;Humidity;BMP_temperature;BMP_pressure;BME280_temperature;BME280_humidity;BME280_pressure;Samples;Min_cycle;Max_cycle;Signal;HPM_P1;HPM_P2
2023/04/04 00:00:42;;;;;;;3.67;0.97;;;25.80;99.90;;;;;;5110172;28;20171;-72
2023/04/04 00:03:10;;;;;;;6.47;1.40;;;25.80;99.90;;;;;;5094133;28;20547;-72
2023/04/04 00:05:37;;;;;;;7.07;1.20;;;25.70;99.90;;;;;;5094499;28;20179;-72
2023/04/04 00:08:05;;;;;;;4.67;1.43;;;26.00;99.90;;;;;;5101568;28;20700;-72
2023/04/04 00:10:32;;;;;;;5.17;1.17;;;26.60;99.90;;;;;;5096888;28;20659;-72
2023/04/04 00:13:00;;;;;;;9.87;1.30;;;27.00;99.90;;;;;;5089689;28;20194;-72
2023/04/04 00:15:30;;;;;;;4.57;1.33;;;27.10;99.90;;;;;;5091275;28;20249;-72
2023/04/04 00:17:58;;;;;;;7.87;1.17;;;26.40;99.90;;;;;;5099812;28;20230;-73
2023/04/04 00:20:25;;;;;;;13.50;1.47;;;26.00;99.90;;;;;;5112700;28;20171;-73
2023/04/04 00:22:53;;;;;;;8.97;1.50;;;25.70;99.90;;;;;;5112468;28;20190;-71
2023/04/04 00:25:21;;;;;;;7.20;1.33;;;24.90;99.90;;;;;;5096222;27;20545;-75
2023/04/04 00:27:49;;;;;;;6.00;1.77;;;24.60;99.90;;;;;;5092173;28;20237;-72
2023/04/04 00:30:16;;;;;;;6.93;1.50;;;24.30;99.90;;;;;;5090554;28;20187;-73
2023/04/04 00:32:44;;;;;;;4.77;1.13;;;24.10;99.90;;;;;;5092483;28;20248;-73
2023/04/04 00:35:13;;;;;;;8.67;1.60;;;23.90;99.90;;;;;;5094642;28;20289;-73
2023/04/04 00:37:41;;;;;;;6.70;1.20;;;24.00;99.90;;;;;;5110902;28;20189;-74
2023/04/04 00:40:09;;;;;;;6.80;1.13;;;24.10;99.90;;;;;;5112705;28;20704;-72
2023/04/04 00:42:37;;;;;;;7.17;1.13;;;24.20;99.90;;;;;;5112298;28;20175;-73
2023/04/04 00:45:07;;;;;;;3.23;1.07;;;24.30;99.90;;;;;;5112584;28;20177;-71
2023/04/04 00:47:37;;;;;;;4.20;0.90;;;24.40;99.90;;;;;;5110606;28;20248;-72
2023/04/04 00:50:06;;;;;;;4.93;1.50;;;24.40;99.90;;;;;;5110815;28;20179;-73
2023/04/04 00:52:33;;;;;;;8.07;1.23;;;24.90;99.90;;;;;;5112237;28;20186;-75
2023/04/04 00:55:01;;;;;;;7.93;1.30;;;26.60;99.90;;;;;;5099668;28;20626;-76
2023/04/04 00:57:30;;;;;;;8.67;1.67;;;28.00;99.90;;;;;;5091571;28;20676;-70
2023/04/04 00:59:58;;;;;;;6.53;1.70;;;28.20;99.90;;;;;;5099483;28;20730;-72
2023/04/04 01:02:26;;;;;;;9.43;1.57;;;27.50;99.90;;;;;;5101502;28;20592;-74
2023/04/04 01:04:54;;;;;;;6.07;1.80;;;27.40;99.90;;;;;;5097208;28;20187;-74
2023/04/04 01:07:22;;;;;;;5.33;1.17;;;28.50;99.90;;;;;;5092026;28;20210;-74
2023/04/04 01:09:51;;;;;;;6.30;1.20;;;28.10;99.90;;;;;;5092100;28;20686;-74
2023/04/04 01:12:19;;;;;;;8.00;2.00;;;27.30;99.90;;;;;;5091554;28;20226;-70
2023/04/04 01:14:47;;;;;;;7.30;1.40;;;26.70;99.90;;;;;;5092408;28;20665;-74
2023/04/04 01:17:15;;;;;;;10.07;1.73;;;26.50;99.90;;;;;;5091625;28;20227;-73
2023/04/04 01:19:56;;;;;;;6.37;1.50;;;26.10;99.90;;;;;;5102952;28;20205;-73
2023/04/04 01:22:24;;;;;;;8.67;1.70;;;26.80;99.90;;;;;;5112229;28;20176;-75
2023/04/04 01:24:54;;;;;;;5.30;1.30;;;27.20;99.90;;;;;;5104307;28;20183;-74
2023/04/04 01:27:22;;;;;;;6.10;1.57;;;27.10;99.90;;;;;;5101412;28;20231;-75
2023/04/04 01:29:50;;;;;;;9.83;1.37;;;28.10;99.90;;;;;;5112125;28;20170;-73
2023/04/04 01:32:38;;;;;;;4.60;1.20;;;28.90;99.90;;;;;;5111874;28;20178;-72
2023/04/04 01:35:11;;;;;;;4.27;1.03;;;30.00;99.90;;;;;;5111754;28;20178;-75
2023/04/04 01:38:00;;;;;;;7.00;1.17;;;30.30;99.90;;;;;;5107176;28;20199;-74
2023/04/04 01:40:36;;;;;;;6.13;1.50;;;29.20;99.90;;;;;;5102623;28;20529;-72
2023/04/04 01:43:04;;;;;;;5.47;1.10;;;28.60;99.90;;;;;;5105055;28;20194;-70
2023/04/04 01:45:32;;;;;;;9.37;1.40;;;27.90;99.90;;;;;;5106841;28;20182;-69
2023/04/04 01:48:00;;;;;;;4.20;1.47;;;27.30;99.90;;;;;;5096710;28;20252;-72
2023/04/04 01:50:28;;;;;;;6.53;1.10;;;27.00;99.90;;;;;;5110646;28;20182;-72
2023/04/04 01:52:55;;;;;;;5.97;1.30;;;27.70;99.90;;;;;;5114827;28;20591;-72
2023/04/04 01:55:23;;;;;;;9.00;1.40;;;28.60;99.90;;;;;;5098661;28;20646;-71
2023/04/04 01:57:51;;;;;;;3.47;0.97;;;29.20;99.90;;;;;;5113429;28;20182;-72
2023/04/04 02:00:19;;;;;;;6.73;1.40;;;29.50;99.90;;;;;;5115986;28;20187;-72
2023/04/04 02:02:48;;;;;;;5.83;1.17;;;30.30;99.90;;;;;;5115935;28;20175;-72
2023/04/04 02:05:16;;;;;;;11.30;1.77;;;30.80;99.90;;;;;;5104412;28;20201;-72
2023/04/04 02:07:51;;;;;;;6.57;1.23;;;30.60;99.90;;;;;;5095435;28;20694;-70
2023/04/04 02:10:19;;;;;;;5.80;1.15;;;31.00;99.90;;;;;;5095629;28;20167;-72
2023/04/04 02:12:47;;;;;;;6.97;1.38;;;31.20;99.90;;;;;;5099005;28;20204;-73
2023/04/04 02:15:14;;;;;;;3.38;1.05;;;31.10;99.90;;;;;;5107151;28;20198;-73
2023/04/04 02:17:46;;;;;;;5.35;1.10;;;31.20;99.90;;;;;;5095198;28;20273;-72
2023/04/04 02:20:14;;;;;;;4.75;1.05;;;31.10;99.90;;;;;;5094934;28;20258;-72
2023/04/04 02:22:42;;;;;;;6.07;1.40;;;31.60;99.90;;;;;;5096961;28;20266;-72
2023/04/04 02:25:10;;;;;;;2.85;1.23;;;31.40;99.90;;;;;;5115643;28;20636;-72
2023/04/04 02:27:37;;;;;;;8.15;1.40;;;31.10;99.90;;;;;;5113359;28;20206;-71
2023/04/04 02:30:06;;;;;;;9.68;1.33;;;31.20;99.90;;;;;;5115551;28;20175;-71
2023/04/04 02:32:34;;;;;;;10.38;1.42;;;31.10;99.90;;;;;;5110535;28;20224;-72
2023/04/04 02:35:02;;;;;;;4.97;1.05;;;31.30;99.90;;;;;;5094480;28;20266;-72
2023/04/04 02:37:30;;;;;;;7.55;1.05;;;31.90;99.90;;;;;;5094822;28;20172;-72
2023/04/04 02:39:58;;;;;;;6.68;1.45;;;31.80;99.90;;;;;;5093623;28;20208;-72
2023/04/04 02:42:26;;;;;;;3.78;1.33;;;32.10;99.90;;;;;;5094599;28;20206;-72
2023/04/04 02:44:53;;;;;;;2.03;0.88;;;32.40;99.90;;;;;;5115190;28;20615;-71
2023/04/04 02:47:21;;;;;;;6.00;1.08;;;32.00;99.90;;;;;;5114663;27;20665;-72
2023/04/04 02:49:49;;;;;;;5.93;0.80;;;31.90;99.90;;;;;;5114695;28;20645;-72
2023/04/04 02:52:17;;;;;;;6.13;0.82;;;31.80;99.90;;;;;;5110602;28;20220;-72
2023/04/04 02:54:45;;;;;;;5.10;1.27;;;31.60;97.30;;;;;;5113926;28;20661;-73
2023/04/04 02:57:12;;;;;;;6.75;1.17;;;31.30;98.10;;;;;;5113909;28;20249;-71
2023/04/04 02:59:40;;;;;;;3.97;1.02;;;31.50;99.90;;;;;;5114967;28;20182;-72
2023/04/04 03:02:08;;;;;;;5.78;1.10;;;31.60;99.90;;;;;;5114743;28;20526;-72
2023/04/04 03:04:36;;;;;;;9.82;1.17;;;32.00;96.80;;;;;;5114165;28;20193;-71
2023/04/04 03:07:04;;;;;;;7.28;1.13;;;32.10;98.60;;;;;;5114286;28;20627;-71
2023/04/04 03:09:32;;;;;;;5.10;1.25;;;32.10;99.20;;;;;;5114687;28;20217;-71
2023/04/04 03:12:00;;;;;;;6.32;1.38;;;31.90;99.70;;;;;;5113891;28;20244;-72
2023/04/04 03:14:28;;;;;;;7.60;1.30;;;31.40;95.20;;;;;;5114524;28;20181;-72
2023/04/04 03:16:56;;;;;;;14.32;1.40;;;30.10;99.90;;;;;;5103214;28;20245;-71
2023/04/04 03:19:25;;;;;;;4.53;1.02;;;30.00;99.90;;;;;;5093583;28;20183;-71
2023/04/04 03:21:52;;;;;;;5.85;1.02;;;30.20;99.90;;;;;;5094044;28;20612;-71
2023/04/04 03:24:21;;;;;;;4.45;1.30;;;30.50;99.90;;;;;;5099190;28;20581;-71
2023/04/04 03:26:49;;;;;;;3.92;0.95;;;30.40;99.90;;;;;;5113452;28;20186;-71
2023/04/04 03:29:17;;;;;;;3.83;1.08;;;30.90;99.90;;;;;;5114132;28;20283;-71
2023/04/04 03:31:45;;;;;;;8.13;1.13;;;30.60;99.90;;;;;;5114229;27;20183;-70
2023/04/04 03:34:13;;;;;;;5.55;1.05;;;30.60;99.90;;;;;;5113597;28;20704;-71
2023/04/04 03:36:41;;;;;;;4.20;1.33;;;30.80;99.90;;;;;;5113839;28;20183;-71
2023/04/04 03:39:09;;;;;;;5.82;1.08;;;30.80;99.90;;;;;;5114020;28;20175;-72
2023/04/04 03:41:37;;;;;;;3.33;0.93;;;30.80;99.90;;;;;;5113604;28;20219;-71
2023/04/04 03:44:05;;;;;;;5.57;0.90;;;30.80;99.90;;;;;;5108764;28;20175;-71
2023/04/04 03:46:33;;;;;;;8.52;1.00;;;30.70;97.60;;;;;;5099646;28;20519;-71
2023/04/04 03:49:00;;;;;;;7.53;1.40;;;29.90;99.90;;;;;;5113196;28;20289;-70
2023/04/04 03:51:28;;;;;;;4.73;0.80;;;29.20;99.90;;;;;;5113672;27;20167;-72
2023/04/04 03:53:56;;;;;;;10.03;1.13;;;28.60;99.90;;;;;;5111528;28;20182;-72
2023/04/04 03:56:24;;;;;;;7.17;0.97;;;28.10;99.90;;;;;;5095206;28;20190;-71
2023/04/04 03:58:54;;;;;;;6.00;1.00;;;27.90;99.90;;;;;;5113355;28;20170;-72
2023/04/04 04:01:22;;;;;;;12.80;1.00;;;27.70;99.90;;;;;;5105977;28;20179;-71
2023/04/04 04:03:50;;;;;;;7.80;0.97;;;27.30;99.90;;;;;;5092657;28;20193;-71
2023/04/04 04:06:17;;;;;;;6.00;0.83;;;26.90;99.90;;;;;;5093130;28;20732;-72
2023/04/04 04:08:46;;;;;;;4.37;1.17;;;26.90;99.90;;;;;;5093014;28;20739;-71
2023/04/04 04:11:13;;;;;;;5.27;1.07;;;26.70;99.90;;;;;;5113012;28;20187;-70
2023/04/04 04:13:41;;;;;;;7.33;1.27;;;27.30;99.90;;;;;;5096818;28;20233;-72
2023/04/04 04:16:09;;;;;;;4.90;0.97;;;27.90;99.90;;;;;;5112957;28;20562;-70
2023/04/04 04:18:38;;;;;;;6.77;1.20;;;28.30;99.90;;;;;;5104241;28;20186;-72
2023/04/04 04:21:09;;;;;;;5.00;0.90;;;28.80;99.90;;;;;;5092852;28;20717;-70
2023/04/04 04:23:37;;;;;;;4.27;1.47;;;29.00;99.90;;;;;;5105124;28;20187;-71
2023/04/04 04:26:05;;;;;;;5.37;1.37;;;29.30;99.90;;;;;;5112547;28;20220;-71
2023/04/04 04:28:33;;;;;;;4.77;0.90;;;29.40;99.90;;;;;;5112638;28;20225;-71
2023/04/04 04:31:09;;;;;;;3.47;0.80;;;29.20;99.90;;;;;;5112912;28;20177;-71
2023/04/04 04:33:37;;;;;;;4.00;0.87;;;29.00;99.90;;;;;;5101072;28;20182;-72
2023/04/04 04:36:06;;;;;;;8.03;1.17;;;28.60;99.90;;;;;;5092540;28;20175;-72
2023/04/04 04:38:34;;;;;;;3.20;0.87;;;28.50;99.90;;;;;;5092143;28;20183;-71
2023/04/04 04:41:01;;;;;;;4.53;0.97;;;28.30;99.90;;;;;;5091895;28;20179;-71
2023/04/04 04:43:29;;;;;;;8.33;1.40;;;28.20;99.90;;;;;;5092335;28;20225;-72
2023/04/04 04:45:57;;;;;;;4.20;1.47;;;28.10;99.90;;;;;;5092208;28;20179;-71
2023/04/04 04:48:25;;;;;;;4.13;0.90;;;27.90;99.90;;;;;;5091772;28;20297;-72
2023/04/04 04:50:53;;;;;;;4.17;0.90;;;27.90;99.90;;;;;;5091921;28;20262;-73
2023/04/04 04:53:21;;;;;;;5.03;1.33;;;28.10;99.90;;;;;;5091923;28;20186;-71
2023/04/04 04:55:51;;;;;;;11.93;9.03;;;28.10;99.90;;;;;;5091579;28;20664;-72
2023/04/04 04:58:22;;;;;;;11.33;4.67;;;28.10;99.90;;;;;;5093005;28;20182;-73
2023/04/04 05:00:54;;;;;;;4.53;2.13;;;27.80;99.90;;;;;;5091833;28;20254;-72
2023/04/04 05:03:22;;;;;;;5.30;1.00;;;27.50;99.90;;;;;;5092592;28;20179;-71
2023/04/04 05:05:50;;;;;;;3.77;0.90;;;27.40;99.90;;;;;;5091691;28;20315;-72
2023/04/04 05:08:18;;;;;;;5.73;1.03;;;27.40;99.90;;;;;;5101120;28;20221;-72
2023/04/04 05:10:46;;;;;;;3.13;0.87;;;27.10;99.90;;;;;;5111807;28;20257;-73
2023/04/04 05:13:14;;;;;;;5.80;1.00;;;27.10;99.90;;;;;;5111893;28;20171;-72
2023/04/04 05:15:42;;;;;;;4.73;1.03;;;26.90;99.90;;;;;;5111721;28;20210;-73
2023/04/04 05:18:09;;;;;;;6.43;1.20;;;26.70;99.90;;;;;;5110668;28;20194;-73
2023/04/04 05:20:37;;;;;;;9.57;1.07;;;26.40;99.90;;;;;;5112084;28;20183;-73
2023/04/04 05:23:05;;;;;;;3.70;1.10;;;26.40;99.90;;;;;;5112115;28;20189;-72
2023/04/04 05:25:33;;;;;;;6.83;1.17;;;26.70;99.90;;;;;;5110307;28;20186;-73
2023/04/04 05:28:02;;;;;;;4.53;0.90;;;26.80;99.90;;;;;;5105221;28;20311;-73
2023/04/04 05:30:31;;;;;;;3.83;0.97;;;26.90;99.90;;;;;;5091732;28;20182;-73
2023/04/04 05:32:59;;;;;;;9.03;1.37;;;26.90;99.90;;;;;;5093107;28;20222;-72
2023/04/04 05:35:28;;;;;;;5.13;1.13;;;27.10;99.90;;;;;;5111886;28;20546;-72
2023/04/04 05:37:56;;;;;;;4.63;0.97;;;27.30;99.90;;;;;;5111444;28;20205;-71
2023/04/04 05:40:24;;;;;;;3.83;0.90;;;26.90;99.90;;;;;;5111551;28;20202;-71
2023/04/04 05:43:03;;;;;;;4.70;0.90;;;26.70;99.90;;;;;;5111777;28;20578;-72
2023/04/04 05:45:31;;;;;;;6.10;1.20;;;26.40;99.90;;;;;;5111844;28;20166;-71
2023/04/04 05:47:59;;;;;;;5.97;1.57;;;26.30;99.90;;;;;;5111139;28;20214;-71
2023/04/04 05:50:27;;;;;;;15.83;12.17;;;26.10;99.90;;;;;;5111856;28;20634;-72
2023/04/04 05:52:55;;;;;;;12.63;3.27;;;26.20;99.90;;;;;;5111562;28;20178;-72
2023/04/04 05:55:24;;;;;;;5.73;2.20;;;26.30;99.90;;;;;;5101790;28;20218;-70
2023/04/04 05:57:52;;;;;;;5.57;1.10;;;26.40;99.90;;;;;;5100758;28;20187;-71
2023/04/04 06:00:20;;;;;;;4.57;1.80;;;26.40;99.90;;;;;;5096395;28;20649;-69
2023/04/04 06:02:48;;;;;;;8.27;1.30;;;26.40;99.90;;;;;;5089721;28;20588;-70
2023/04/04 06:05:16;;;;;;;7.30;0.87;;;26.20;99.90;;;;;;5091469;28;20207;-70
2023/04/04 06:07:43;;;;;;;6.10;1.13;;;26.00;99.90;;;;;;5091377;28;20666;-71
2023/04/04 06:10:11;;;;;;;8.53;1.30;;;26.00;99.90;;;;;;5091121;28;20179;-70
2023/04/04 06:12:39;;;;;;;8.47;1.27;;;25.90;99.90;;;;;;5091407;28;20510;-71
2023/04/04 06:15:08;;;;;;;6.73;0.87;;;25.60;99.90;;;;;;5089879;28;20183;-70
2023/04/04 06:17:36;;;;;;;7.57;1.50;;;25.30;99.90;;;;;;5094293;28;20214;-71
2023/04/04 06:20:04;;;;;;;4.97;0.83;;;25.00;99.90;;;;;;5110517;28;20193;-70
2023/04/04 06:22:33;;;;;;;8.87;1.13;;;24.70;99.90;;;;;;5107782;28;20586;-71
2023/04/04 06:25:01;;;;;;;5.03;1.03;;;24.50;99.90;;;;;;5090997;28;20214;-70
2023/04/04 06:27:29;;;;;;;3.67;1.00;;;24.30;99.90;;;;;;5091317;28;20232;-70
2023/04/04 06:29:57;;;;;;;6.53;1.07;;;24.20;99.90;;;;;;5096816;28;20194;-70
2023/04/04 06:32:25;;;;;;;7.10;1.13;;;24.10;99.90;;;;;;5115013;28;20261;-70
2023/04/04 06:34:52;;;;;;;2.67;0.60;;;24.20;99.90;;;;;;5115224;28;20182;-73
2023/04/04 06:37:20;;;;;;;7.10;0.97;;;24.30;99.90;;;;;;5105456;28;20183;-70
2023/04/04 06:39:48;;;;;;;11.93;1.40;;;24.30;99.90;;;;;;5094429;28;20247;-69
2023/04/04 06:42:16;;;;;;;6.70;1.37;;;24.50;99.90;;;;;;5094883;28;20216;-70
2023/04/04 06:44:44;;;;;;;8.70;1.57;;;24.50;99.90;;;;;;5094618;28;20184;-70
2023/04/04 06:47:12;;;;;;;7.57;1.47;;;24.40;99.90;;;;;;5101397;28;20637;-71
2023/04/04 06:49:40;;;;;;;6.27;0.97;;;24.40;99.90;;;;;;5115001;27;20182;-71
2023/04/04 06:52:08;;;;;;;8.77;1.67;;;24.30;99.90;;;;;;5103057;28;20715;-71
2023/04/04 06:54:36;;;;;;;4.03;0.70;;;24.40;99.90;;;;;;5110416;28;20343;-71
2023/04/04 06:57:04;;;;;;;5.50;1.10;;;24.40;99.90;;;;;;5114507;28;20281;-70
2023/04/04 06:59:32;;;;;;;6.00;1.30;;;24.40;99.90;;;;;;5114945;27;20183;-71
2023/04/04 07:02:00;;;;;;;6.30;1.60;;;24.50;99.90;;;;;;5114407;28;20662;-72
2023/04/04 07:04:31;;;;;;;5.83;1.10;;;24.60;99.90;;;;;;5114748;28;20633;-72
2023/04/04 07:06:59;;;;;;;10.03;1.50;;;24.50;99.90;;;;;;5114381;28;20190;-69
2023/04/04 07:09:27;;;;;;;4.00;1.10;;;24.40;99.90;;;;;;5114416;27;20214;-69
2023/04/04 07:11:55;;;;;;;7.63;1.47;;;24.20;99.90;;;;;;5114527;28;20273;-70
2023/04/04 07:14:24;;;;;;;7.83;1.53;;;24.00;99.90;;;;;;5094108;28;20183;-71
2023/04/04 07:16:52;;;;;;;4.83;1.03;;;23.80;99.90;;;;;;5094347;28;20226;-71
2023/04/04 07:19:23;;;;;;;5.30;1.07;;;23.60;99.90;;;;;;5114396;28;20633;-70
2023/04/04 07:21:51;;;;;;;11.60;1.40;;;23.40;99.90;;;;;;5114067;28;20177;-71
2023/04/04 07:24:18;;;;;;;11.60;1.63;;;23.20;99.90;;;;;;5104831;28;20187;-70
2023/04/04 07:26:46;;;;;;;6.40;1.00;;;23.10;99.90;;;;;;5098881;28;20249;-71
2023/04/04 07:29:14;;;;;;;7.47;1.27;;;23.00;99.90;;;;;;5113797;28;20231;-71
2023/04/04 07:31:42;;;;;;;6.13;1.20;;;23.00;99.90;;;;;;5114057;28;20179;-71
2023/04/04 07:34:10;;;;;;;10.43;1.40;;;22.80;99.90;;;;;;5114133;28;20272;-71
2023/04/04 07:36:38;;;;;;;7.13;1.50;;;22.70;99.90;;;;;;5113543;28;20179;-70
2023/04/04 07:39:05;;;;;;;6.33;1.20;;;22.70;99.90;;;;;;5113786;28;20210;-71
2023/04/04 07:41:34;;;;;;;8.07;1.37;;;22.60;99.90;;;;;;5106439;28;20183;-71
2023/04/04 07:44:02;;;;;;;9.37;1.30;;;22.50;99.90;;;;;;5093314;28;20176;-71
2023/04/04 07:46:30;;;;;;;5.27;1.27;;;22.30;99.90;;;;;;5107422;28;20178;-70
2023/04/04 07:48:58;;;;;;;5.53;1.17;;;22.20;99.90;;;;;;5093093;28;20222;-71
2023/04/04 07:51:30;;;;;;;10.37;1.60;;;22.20;99.90;;;;;;5092830;28;20187;-71
2023/04/04 07:53:58;;;;;;;7.90;1.97;;;22.10;99.90;;;;;;5093283;28;20201;-71
2023/04/04 07:56:25;;;;;;;11.73;1.27;;;22.10;99.90;;;;;;5093254;28;20171;-70
2023/04/04 07:58:53;;;;;;;9.43;1.37;;;21.90;99.90;;;;;;5112953;28;20190;-71
2023/04/04 08:01:21;;;;;;;6.73;1.53;;;21.90;99.90;;;;;;5111803;28;20213;-68
2023/04/04 08:03:52;;;;;;;5.73;1.17;;;21.80;99.90;;;;;;5111736;28;20555;-70
2023/04/04 08:06:19;;;;;;;8.70;1.43;;;21.70;99.90;;;;;;5112779;28;20272;-70
2023/04/04 08:08:47;;;;;;;5.33;1.37;;;21.60;99.90;;;;;;5104333;28;20293;-70
2023/04/04 08:11:15;;;;;;;5.40;1.90;;;21.60;99.90;;;;;;5113006;28;20175;-70
2023/04/04 08:13:43;;;;;;;7.67;1.30;;;21.50;99.90;;;;;;5111118;28;20681;-69
2023/04/04 08:16:11;;;;;;;7.97;1.50;;;21.40;99.90;;;;;;5111427;28;20222;-70
2023/04/04 08:18:39;;;;;;;5.80;1.83;;;21.30;99.90;;;;;;5094662;28;20187;-70
2023/04/04 08:21:07;;;;;;;6.47;1.80;;;21.30;99.90;;;;;;5103657;28;20265;-71
2023/04/04 08:23:34;;;;;;;14.67;2.10;;;21.20;99.90;;;;;;5098419;28;20179;-68
2023/04/04 08:26:03;;;;;;;12.03;1.70;;;21.20;99.90;;;;;;5096429;28;20675;-69
2023/04/04 08:28:33;;;;;;;9.50;1.60;;;21.10;99.90;;;;;;5112121;28;20218;-69
2023/04/04 08:31:02;;;;;;;7.60;1.70;;;21.10;99.90;;;;;;5112946;28;20178;-68
2023/04/04 08:33:30;;;;;;;8.27;1.93;;;21.00;99.90;;;;;;5097420;28;20187;-70
2023/04/04 08:35:57;;;;;;;7.03;1.83;;;21.00;99.90;;;;;;5100898;28;20551;-70
2023/04/04 08:38:26;;;;;;;6.03;2.07;;;20.90;99.90;;;;;;5112247;28;20182;-71
2023/04/04 08:40:53;;;;;;;4.60;1.97;;;20.80;99.90;;;;;;5104579;28;20979;-70
2023/04/04 08:43:23;;;;;;;8.27;1.90;;;20.80;99.90;;;;;;5102049;28;20176;-69
2023/04/04 08:45:52;;;;;;;7.40;1.70;;;20.70;99.90;;;;;;5101046;28;20291;-70
2023/04/04 08:48:23;;;;;;;9.53;1.50;;;20.70;99.90;;;;;;5101811;28;20559;-70
2023/04/04 08:50:56;;;;;;;10.07;1.83;;;20.60;99.90;;;;;;5101756;28;20177;-70
2023/04/04 08:53:23;;;;;;;5.33;1.63;;;20.50;99.90;;;;;;5091948;28;20642;-71
2023/04/04 08:55:56;;;;;;;6.00;2.03;;;20.50;99.90;;;;;;5091831;28;20250;-69
2023/04/04 08:58:25;;;;;;;5.00;1.70;;;20.40;99.90;;;;;;5091953;28;20186;-71
2023/04/04 09:00:56;;;;;;;6.43;1.87;;;20.40;99.90;;;;;;5092041;28;20592;-69
2023/04/04 09:03:31;;;;;;;7.97;1.87;;;20.30;99.90;;;;;;5091568;28;20171;-71
2023/04/04 09:06:00;;;;;;;6.63;1.70;;;20.20;99.90;;;;;;5104066;28;20210;-69
2023/04/04 09:08:31;;;;;;;4.27;2.07;;;20.10;99.90;;;;;;5093083;28;20236;-70
2023/04/04 09:11:04;;;;;;;6.00;1.60;;;20.00;99.90;;;;;;5093350;28;20165;-70
2023/04/04 09:13:32;;;;;;;7.03;1.83;;;19.90;99.90;;;;;;5105294;28;20183;-70
2023/04/04 09:16:00;;;;;;;7.13;1.70;;;19.80;99.90;;;;;;5110387;28;20258;-70
2023/04/04 09:18:29;;;;;;;7.73;2.10;;;19.80;99.90;;;;;;5092809;28;20262;-70
2023/04/04 09:20:57;;;;;;;9.03;1.57;;;19.70;99.90;;;;;;5093007;28;20178;-70
2023/04/04 09:23:24;;;;;;;8.80;1.83;;;19.60;99.90;;;;;;5092947;28;20168;-70
2023/04/04 09:25:56;;;;;;;6.17;1.53;;;19.50;99.90;;;;;;5093039;28;20204;-71
2023/04/04 09:28:24;;;;;;;6.97;1.77;;;19.50;99.90;;;;;;5093463;28;20280;-70
2023/04/04 09:30:53;;;;;;;6.37;1.67;;;19.50;99.90;;;;;;5093151;28;20171;-71
2023/04/04 09:33:25;;;;;;;5.30;1.63;;;19.50;99.90;;;;;;5092890;28;20169;-71
2023/04/04 09:35:59;;;;;;;6.33;2.00;;;19.40;99.90;;;;;;5093362;28;20168;-69
2023/04/04 09:38:30;;;;;;;14.97;3.47;;;19.30;99.90;;;;;;5092786;28;20244;-71
2023/04/04 09:40:58;;;;;;;6.40;1.90;;;19.30;99.90;;;;;;5092777;28;20242;-70
2023/04/04 09:43:29;;;;;;;8.43;1.80;;;19.20;99.90;;;;;;5092909;28;20170;-71
2023/04/04 09:45:58;;;;;;;4.90;1.60;;;19.10;99.90;;;;;;5092877;28;20170;-71
2023/04/04 09:48:33;;;;;;;4.33;1.83;;;19.00;99.90;;;;;;5092847;28;20666;-70
2023/04/04 09:51:05;;;;;;;6.10;1.63;;;19.00;99.90;;;;;;5093354;28;20224;-71
2023/04/04 09:53:38;;;;;;;6.93;2.40;;;18.90;99.90;;;;;;5092759;28;20186;-72
2023/04/04 09:56:06;;;;;;;10.93;2.57;;;18.80;99.90;;;;;;5092917;28;20254;-71
2023/04/04 09:58:35;;;;;;;11.37;1.93;;;18.80;99.90;;;;;;5091884;28;20172;-71
2023/04/04 10:01:08;;;;;;;8.70;2.20;;;18.70;99.90;;;;;;5092324;28;20637;-70
2023/04/04 10:03:40;;;;;;;12.63;2.47;;;18.70;99.90;;;;;;5094397;28;20262;-70
2023/04/04 10:06:09;;;;;;;7.30;2.07;;;18.60;99.90;;;;;;5095958;28;20177;-71
2023/04/04 10:09:19;;;;;;;6.33;2.73;;;18.60;99.90;;;;;;5095911;28;20203;-70
2023/04/04 10:11:47;;;;;;;8.63;2.73;;;18.50;99.90;;;;;;5096014;28;20672;-69
2023/04/04 10:14:15;;;;;;;5.33;3.00;;;18.50;99.90;;;;;;5096049;28;20744;-72
2023/04/04 10:16:45;;;;;;;5.63;2.50;;;18.60;99.90;;;;;;5095852;28;20245;-72
2023/04/04 10:19:17;;;;;;;9.77;2.73;;;18.60;99.90;;;;;;5095882;28;20199;-71
2023/04/04 10:21:47;;;;;;;10.07;3.03;;;18.50;99.90;;;;;;5095437;28;20264;-70
2023/04/04 10:24:16;;;;;;;10.00;2.97;;;18.50;99.90;;;;;;5095796;28;20651;-69
2023/04/04 10:26:44;;;;;;;12.83;2.60;;;18.40;99.90;;;;;;5095602;28;20548;-69
2023/04/04 10:29:13;;;;;;;8.43;2.40;;;18.40;99.90;;;;;;5095759;28;20213;-70
2023/04/04 10:31:46;;;;;;;4.93;2.20;;;18.40;99.90;;;;;;5095443;28;20268;-69
2023/04/04 10:34:24;;;;;;;8.27;2.60;;;18.30;99.90;;;;;;5095718;28;20185;-72
2023/04/04 10:37:06;;;;;;;6.70;2.30;;;18.20;99.90;;;;;;5095619;28;20231;-71
2023/04/04 10:39:44;;;;;;;8.43;2.77;;;18.20;99.90;;;;;;5095323;28;20175;-71
2023/04/04 10:42:16;;;;;;;10.00;2.57;;;18.20;99.90;;;;;;5095484;28;20179;-71
2023/04/04 10:44:46;;;;;;;11.13;2.70;;;18.20;99.90;;;;;;5095586;28;20171;-71
2023/04/04 10:47:24;;;;;;;5.20;2.70;;;18.10;99.90;;;;;;5095276;28;20168;-70
2023/04/04 10:49:52;;;;;;;10.13;3.17;;;18.10;99.90;;;;;;5095217;28;20181;-70
2023/04/04 10:52:22;;;;;;;6.90;2.70;;;18.00;99.90;;;;;;5093951;28;20199;-70
2023/04/04 10:54:56;;;;;;;6.20;2.50;;;18.00;99.90;;;;;;5095039;28;20179;-71
2023/04/04 10:57:26;;;;;;;6.53;2.67;;;17.90;99.90;;;;;;5095428;28;20198;-70
2023/04/04 11:00:01;;;;;;;6.43;2.20;;;17.90;99.90;;;;;;5094934;28;20179;-71
2023/04/04 11:03:01;;;;;;;5.93;2.23;;;18.00;99.90;;;;;;5095169;28;20178;-70
2023/04/04 11:05:36;;;;;;;5.80;2.17;;;18.10;99.90;;;;;;5093623;28;20631;-69
2023/04/04 11:08:09;;;;;;;13.73;3.30;;;18.10;99.90;;;;;;5095091;28;20206;-70
2023/04/04 11:10:40;;;;;;;10.33;2.50;;;18.20;99.90;;;;;;5094649;28;20622;-71
2023/04/04 11:13:17;;;;;;;5.27;2.13;;;18.20;99.90;;;;;;5093725;28;20183;-70
2023/04/04 11:16:06;;;;;;;7.47;1.77;;;18.30;99.90;;;;;;5093508;28;20598;-72
2023/04/04 11:18:44;;;;;;;8.53;2.00;;;18.30;99.90;;;;;;5094818;28;20262;-72
2023/04/04 11:21:22;;;;;;;6.03;2.13;;;18.20;99.90;;;;;;5094796;28;20644;-71
2023/04/04 11:23:59;;;;;;;8.57;2.50;;;18.20;99.90;;;;;;5094516;28;20183;-71
2023/04/04 11:26:33;;;;;;;5.43;2.07;;;18.10;99.90;;;;;;5094792;28;20176;-71
2023/04/04 11:29:03;;;;;;;9.20;1.93;;;18.10;99.90;;;;;;5094324;28;20301;-71
2023/04/04 11:31:46;;;;;;;7.97;1.80;;;18.20;99.90;;;;;;5094103;28;20175;-72
2023/04/04 11:34:28;;;;;;;10.13;2.47;;;18.10;99.90;;;;;;5094596;28;20212;-71
2023/04/04 11:37:00;;;;;;;7.73;2.03;;;18.10;99.90;;;;;;5094554;28;20167;-70
2023/04/04 11:39:33;;;;;;;10.73;1.80;;;18.20;99.90;;;;;;5094113;28;20179;-70
2023/04/04 11:42:07;;;;;;;9.57;1.90;;;18.10;99.90;;;;;;5094422;28;20201;-70
2023/04/04 11:44:57;;;;;;;4.30;1.60;;;18.00;99.90;;;;;;5096401;28;20274;-71
2023/04/04 11:47:25;;;;;;;4.90;1.70;;;17.90;99.90;;;;;;5107877;28;20183;-71
2023/04/04 11:49:55;;;;;;;7.13;1.80;;;17.80;99.90;;;;;;5113423;28;20657;-71
2023/04/04 11:52:24;;;;;;;4.07;1.57;;;17.80;99.90;;;;;;5114433;28;20628;-70
2023/04/04 11:54:52;;;;;;;3.57;1.83;;;17.80;99.90;;;;;;5113898;28;20521;-70
2023/04/04 11:57:21;;;;;;;8.83;1.80;;;17.80;99.90;;;;;;5114407;28;20181;-71
2023/04/04 11:59:50;;;;;;;7.97;1.83;;;17.80;99.90;;;;;;5107366;28;20293;-70
2023/04/04 12:02:30;;;;;;;8.07;1.80;;;17.80;99.90;;;;;;5104422;28;20187;-71
2023/04/04 12:05:01;;;;;;;5.53;1.63;;;17.80;99.90;;;;;;5113547;28;20209;-70
2023/04/04 12:07:29;;;;;;;8.00;2.23;;;17.60;99.90;;;;;;5114129;28;20263;-70
2023/04/04 12:09:57;;;;;;;7.10;2.07;;;17.60;99.90;;;;;;5110601;28;20273;-71
2023/04/04 12:12:29;;;;;;;6.63;1.83;;;17.60;99.90;;;;;;5093707;28;20214;-70
2023/04/04 12:14:57;;;;;;;12.20;2.20;;;17.50;99.90;;;;;;5103484;28;20623;-70
2023/04/04 12:17:30;;;;;;;6.47;1.80;;;17.40;99.90;;;;;;5113032;28;20693;-71
2023/04/04 12:19:58;;;;;;;6.37;2.00;;;17.40;99.90;;;;;;5113526;27;20262;-71
2023/04/04 12:22:26;;;;;;;7.30;2.23;;;17.30;99.90;;;;;;5111689;28;20181;-71
2023/04/04 12:24:57;;;;;;;5.60;1.70;;;17.30;99.90;;;;;;5094672;28;20573;-71
2023/04/04 12:27:25;;;;;;;5.83;1.73;;;17.30;99.90;;;;;;5092950;28;20186;-72
2023/04/04 12:29:53;;;;;;;6.43;2.17;;;17.20;99.90;;;;;;5113629;28;20224;-71
2023/04/04 12:32:22;;;;;;;7.80;1.90;;;17.20;99.90;;;;;;5113778;28;20174;-70
2023/04/04 12:34:50;;;;;;;8.43;2.00;;;17.20;99.90;;;;;;5111748;28;20646;-71
2023/04/04 12:37:21;;;;;;;7.97;2.07;;;17.20;99.90;;;;;;5112073;28;20227;-70
2023/04/04 12:39:51;;;;;;;5.67;2.00;;;17.10;99.90;;;;;;5112620;28;20681;-70
2023/04/04 12:42:25;;;;;;;7.43;1.83;;;17.00;99.90;;;;;;5112651;28;20175;-69
2023/04/04 12:44:53;;;;;;;7.60;2.10;;;17.00;99.90;;;;;;5112460;28;20182;-71
2023/04/04 12:47:23;;;;;;;6.53;1.93;;;16.90;99.90;;;;;;5100400;28;20638;-70
2023/04/04 12:49:53;;;;;;;8.03;2.07;;;16.90;99.90;;;;;;5091434;28;20188;-71
2023/04/04 12:52:33;;;;;;;4.07;2.00;;;16.90;99.90;;;;;;5092773;28;20181;-70
2023/04/04 12:55:10;;;;;;;5.13;2.03;;;16.90;99.90;;;;;;5092933;28;20183;-71
2023/04/04 12:57:44;;;;;;;6.23;2.20;;;16.80;99.90;;;;;;5108695;28;20171;-71